Time;durP1;ratioP1;P1;durP2;ratioP2;P2;SDS_P1;SDS_P2;PMS_P1;PMS_P2;Temp;Humidity;BMP_temperature;BMP_pressure;BME280_temperature;BME280_humidity;BME280_pressure;Samples;Min_cycle;Max_cycle;Signal;HPM_P1;HPM_P2
2023/05/28 00:01:33;;;;;;;;;;;;;;;21.69;45.31;98113.44;5051586;28;20094;-72
2023/05/28 00:04:00;;;;;;;;;;;;;;;21.63;45.34;98114.75;5038053;28;19925;-73
2023/05/28 00:06:26;;;;;;;;;;;;;;;21.56;45.31;98111.75;5037653;28;19933;-72
2023/05/28 00:08:52;;;;;;;;;;;;;;;21.52;45.54;98111.59;5041637;28;19930;-71
2023/05/28 00:11:19;;;;;;;;;;;;;;;21.38;47.17;98117.28;5058104;28;19929;-75
2023/05/28 00:13:45;;;;;;;;;;;;;;;21.48;46.33;98110.66;5042525;28;19933;-73
2023/05/28 00:16:14;;;;;;;;;;;;;;;21.36;46.13;98111.38;5053600;28;19944;-75
2023/05/28 00:18:41;;;;;;;;;;;;;;;21.40;45.98;98096.03;5037788;28;19991;-75
2023/05/28 00:21:08;;;;;;;;;;;;;;;21.32;46.17;98098.78;5038539;28;19945;-72
2023/05/28 00:23:34;;;;;;;;;;;;;;;21.38;45.82;98105.63;5041012;28;19926;-72
2023/05/28 00:26:01;;;;;;;;;;;;;;;21.33;45.77;98101.16;5045390;28;19925;-72
2023/05/28 00:28:27;;;;;;;;;;;;;;;21.31;45.75;98106.13;5037200;28;19933;-72
2023/05/28 00:30:53;;;;;;;;;;;;;;;21.23;45.95;98096.09;5040015;28;19922;-72
2023/05/28 00:33:20;;;;;;;;;;;;;;;21.22;46.02;98102.66;5039438;28;19948;-72
2023/05/28 00:35:49;;;;;;;;;;;;;;;21.28;45.80;98103.28;5040708;28;19929;-72
2023/05/28 00:38:16;;;;;;;;;;;;;;;21.31;45.78;98108.06;5039448;28;19932;-72
2023/05/28 00:40:43;;;;;;;;;;;;;;;21.27;45.92;98096.25;5036927;28;19932;-72
2023/05/28 00:43:09;;;;;;;;;;;;;;;21.29;46.03;98102.16;5037732;28;19926;-72
2023/05/28 00:45:36;;;;;;;;;;;;;;;21.24;45.93;98094.97;5048595;28;19948;-72
2023/05/28 00:48:03;;;;;;;;;;;;;;;21.21;45.96;98090.22;5037963;28;19929;-72
2023/05/28 00:50:29;;;;;;;;;;;;;;;21.25;45.87;98093.06;5037064;28;19925;-72
2023/05/28 00:52:57;;;;;;;;;;;;;;;21.21;46.16;98092.13;5038542;28;19933;-72
2023/05/28 00:55:25;;;;;;;;;;;;;;;21.13;46.09;98091.06;5040731;28;19925;-72
2023/05/28 00:57:54;;;;;;;;;;;;;;;21.11;46.17;98085.13;5042853;28;19925;-76
2023/05/28 01:00:21;;;;;;;;;;;;;;;21.10;46.27;98099.06;5049395;28;19932;-71
2023/05/28 01:02:48;;;;;;;;;;;;;;;21.02;46.20;98087.06;5040134;28;19921;-70
2023/05/28 01:05:15;;;;;;;;;;;;;;;21.01;46.27;98096.34;5048770;28;20288;-70
2023/05/28 01:07:41;;;;;;;;;;;;;;;21.06;46.24;98096.16;5043987;28;19925;-70
2023/05/28 01:10:10;;;;;;;;;;;;;;;20.99;46.26;98096.66;5041686;28;21126;-70
2023/05/28 01:12:36;;;;;;;;;;;;;;;21.04;46.33;98098.41;5039007;28;19929;-70
2023/05/28 01:15:03;;;;;;;;;;;;;;;20.97;46.44;98098.13;5042189;28;19944;-70
2023/05/28 01:17:29;;;;;;;;;;;;;;;20.89;46.60;98090.78;5059158;28;19926;-70
2023/05/28 01:19:56;;;;;;;;;;;;;;;20.88;46.74;98081.06;5059231;28;19925;-70
2023/05/28 01:22:25;;;;;;;;;;;;;;;20.87;46.62;98082.19;5044012;28;19925;-70
2023/05/28 01:24:53;;;;;;;;;;;;;;;20.85;46.81;98081.72;5044344;28;19948;-70
2023/05/28 01:27:20;;;;;;;;;;;;;;;20.82;46.85;98090.50;5043630;28;19925;-70
2023/05/28 01:29:46;;;;;;;;;;;;;;;20.80;46.82;98071.81;5043422;28;19929;-70
2023/05/28 01:32:12;;;;;;;;;;;;;;;20.77;47.00;98082.53;5042105;28;19928;-70
2023/05/28 01:34:39;;;;;;;;;;;;;;;20.80;46.94;98074.53;5038791;28;19925;-70
2023/05/28 01:37:09;;;;;;;;;;;;;;;20.79;46.90;98075.69;5040908;28;19925;-70
2023/05/28 01:39:38;;;;;;;;;;;;;;;20.79;47.02;98083.03;5043272;28;20283;-70
2023/05/28 01:42:07;;;;;;;;;;;;;;;20.78;47.06;98078.69;5058772;28;19926;-70
2023/05/28 01:44:34;;;;;;;;;;;;;;;20.78;47.20;98073.28;5042991;28;19933;-70
2023/05/28 01:47:00;;;;;;;;;;;;;;;20.74;47.33;98075.84;5041001;28;19935;-70
2023/05/28 01:49:27;;;;;;;;;;;;;;;20.72;47.36;98082.72;5045762;28;20246;-70
2023/05/28 01:51:53;;;;;;;;;;;;;;;20.69;47.41;98078.75;5042852;28;19932;-70
2023/05/28 01:54:20;;;;;;;;;;;;;;;20.62;47.63;98080.34;5042725;28;19925;-70
2023/05/28 01:56:46;;;;;;;;;;;;;;;20.64;47.71;98080.84;5038567;28;19948;-70
2023/05/28 01:59:14;;;;;;;;;;;;;;;20.60;47.79;98077.97;5045527;28;19932;-70
2023/05/28 02:01:40;;;;;;;;;;;;;;;20.51;47.87;98074.50;5042794;28;19936;-70
2023/05/28 02:04:07;;;;;;;;;;;;;;;20.54;47.96;98073.03;5041605;28;19926;-71
2023/05/28 02:06:34;;;;;;;;;;;;;;;20.43;47.94;98073.38;5042746;28;19933;-70
2023/05/28 02:09:00;;;;;;;;;;;;;;;20.33;48.08;98064.78;5040477;28;19933;-70
2023/05/28 02:11:27;;;;;;;;;;;;;;;20.43;48.07;98072.56;5045487;28;19926;-70
2023/05/28 02:13:54;;;;;;;;;;;;;;;20.44;48.01;98068.75;5042615;28;19961;-70
2023/05/28 02:16:22;;;;;;;;;;;;;;;20.36;48.10;98066.88;5042166;28;19925;-70
2023/05/28 02:18:51;;;;;;;;;;;;;;;20.24;48.36;98072.91;5038053;28;19925;-70
2023/05/28 02:21:18;;;;;;;;;;;;;;;20.21;48.31;98070.81;5039635;28;19926;-70
2023/05/28 02:23:45;;;;;;;;;;;;;;;20.23;48.49;98075.94;5042447;28;19941;-70
2023/05/28 02:26:12;;;;;;;;;;;;;;;20.26;48.34;98078.84;5042381;28;19925;-70
2023/05/28 02:28:38;;;;;;;;;;;;;;;20.30;48.45;98068.94;5042131;28;19936;-70
2023/05/28 02:31:05;;;;;;;;;;;;;;;20.28;48.29;98070.38;5049529;28;19933;-70
2023/05/28 02:33:33;;;;;;;;;;;;;;;20.31;48.39;98073.25;5042723;28;20352;-70
2023/05/28 02:35:59;;;;;;;;;;;;;;;20.16;48.62;98070.19;5042333;28;19925;-70
2023/05/28 02:38:25;;;;;;;;;;;;;;;20.16;48.65;98071.00;5042224;28;19925;-70
2023/05/28 02:40:52;;;;;;;;;;;;;;;20.10;48.77;98066.06;5039294;28;19926;-70
2023/05/28 02:43:18;;;;;;;;;;;;;;;20.11;48.85;98068.47;5038690;28;19926;-70
2023/05/28 02:45:45;;;;;;;;;;;;;;;20.17;48.80;98067.19;5042317;28;20278;-70
2023/05/28 02:48:11;;;;;;;;;;;;;;;20.18;48.84;98066.03;5042406;28;19925;-70
2023/05/28 02:50:39;;;;;;;;;;;;;;;20.13;48.85;98065.41;5044204;28;19933;-70
2023/05/28 02:53:05;;;;;;;;;;;;;;;20.16;48.84;98049.31;5041329;28;19925;-70
2023/05/28 02:55:31;;;;;;;;;;;;;;;20.04;49.10;98067.34;5041975;28;19926;-70
2023/05/28 02:57:58;;;;;;;;;;;;;;;20.14;49.04;98067.03;5042118;28;19926;-70
2023/05/28 03:00:25;;;;;;;;;;;;;;;20.05;49.13;98061.63;5048827;28;19929;-70
2023/05/28 03:02:51;;;;;;;;;;;;;;;20.07;49.19;98064.00;5037954;28;19952;-70
2023/05/28 03:05:18;;;;;;;;;;;;;;;19.98;49.29;98065.91;5038721;28;19926;-70
2023/05/28 03:07:46;;;;;;;;;;;;;;;19.89;49.43;98060.50;5041696;28;20360;-70
2023/05/28 03:10:12;;;;;;;;;;;;;;;20.03;49.23;98071.16;5041728;28;19925;-70
2023/05/28 03:12:38;;;;;;;;;;;;;;;20.00;49.27;98066.38;5043566;28;19939;-70
2023/05/28 03:15:05;;;;;;;;;;;;;;;19.87;49.48;98073.56;5040705;28;19936;-70
2023/05/28 03:17:31;;;;;;;;;;;;;;;19.81;49.63;98066.72;5041580;28;19925;-70
2023/05/28 03:19:58;;;;;;;;;;;;;;;19.81;49.68;98064.78;5056088;28;19921;-70
2023/05/28 03:22:25;;;;;;;;;;;;;;;19.88;49.62;98067.84;5041393;28;19929;-70
2023/05/28 03:24:52;;;;;;;;;;;;;;;19.82;49.63;98074.53;5033316;28;19926;-70
2023/05/28 03:27:19;;;;;;;;;;;;;;;19.81;49.62;98069.41;5038123;28;19925;-70
2023/05/28 03:29:45;;;;;;;;;;;;;;;19.82;49.62;98073.72;5051062;28;19948;-70
2023/05/28 03:32:11;;;;;;;;;;;;;;;19.81;49.71;98069.41;5041418;28;19933;-70
2023/05/28 03:34:38;;;;;;;;;;;;;;;19.86;49.66;98063.84;5041381;28;19929;-71
2023/05/28 03:37:05;;;;;;;;;;;;;;;19.82;49.87;98069.13;5035282;28;19929;-71
2023/05/28 03:39:33;;;;;;;;;;;;;;;19.52;50.29;98066.53;5056514;28;21232;-71
2023/05/28 03:42:01;;;;;;;;;;;;;;;19.53;50.50;98073.56;5041184;28;19988;-71
2023/05/28 03:44:27;;;;;;;;;;;;;;;19.52;50.41;98070.06;5041223;28;19921;-70
2023/05/28 03:46:54;;;;;;;;;;;;;;;19.64;50.24;98072.94;5037182;28;20222;-70
2023/05/28 03:49:20;;;;;;;;;;;;;;;19.64;50.27;98075.66;5037971;28;19926;-70
2023/05/28 03:51:46;;;;;;;;;;;;;;;19.66;50.33;98076.09;5041127;28;19925;-70
2023/05/28 03:54:13;;;;;;;;;;;;;;;19.61;50.39;98078.19;5056509;28;19957;-70
2023/05/28 03:56:40;;;;;;;;;;;;;;;19.61;50.35;98070.06;5041250;28;19933;-70
2023/05/28 03:59:07;;;;;;;;;;;;;;;19.70;50.35;98060.03;5038585;28;19925;-70
2023/05/28 04:01:36;;;;;;;;;;;;;;;19.59;50.43;98067.66;5035331;28;19926;-70
2023/05/28 04:04:02;;;;;;;;;;;;;;;19.43;50.66;98074.66;5046475;28;19929;-70
2023/05/28 04:06:30;;;;;;;;;;;;;;;18.94;51.72;98081.16;5041388;28;19929;-70
2023/05/28 04:08:57;;;;;;;;;;;;;;;19.04;51.64;98070.06;5037764;28;19951;-70
2023/05/28 04:11:24;;;;;;;;;;;;;;;19.34;51.32;98074.59;5037721;28;19925;-70
2023/05/28 04:13:51;;;;;;;;;;;;;;;19.28;51.34;98075.09;5037431;28;19949;-70
2023/05/28 04:16:19;;;;;;;;;;;;;;;19.47;51.16;98080.22;5041361;28;20410;-70
2023/05/28 04:18:45;;;;;;;;;;;;;;;19.23;51.51;98078.72;5039694;28;20472;-70
2023/05/28 04:21:12;;;;;;;;;;;;;;;19.01;51.76;98080.72;5039521;28;19932;-70
2023/05/28 04:23:38;;;;;;;;;;;;;;;19.23;51.65;98081.44;5036653;28;19993;-70
2023/05/28 04:26:06;;;;;;;;;;;;;;;19.03;51.91;98071.19;5046725;28;19941;-70
2023/05/28 04:28:33;;;;;;;;;;;;;;;19.19;51.81;98074.22;5040934;28;19925;-70
2023/05/28 04:31:00;;;;;;;;;;;;;;;19.24;51.66;98069.50;5052263;28;19936;-70
2023/05/28 04:33:29;;;;;;;;;;;;;;;19.32;51.66;98067.91;5040959;28;19921;-70
2023/05/28 04:35:56;;;;;;;;;;;;;;;19.07;51.97;98072.13;5043751;28;19929;-70
2023/05/28 04:38:22;;;;;;;;;;;;;;;19.06;52.19;98069.75;5044703;28;19932;-70
2023/05/28 04:40:49;;;;;;;;;;;;;;;19.13;52.07;98073.59;5044768;28;19921;-70
2023/05/28 04:43:16;;;;;;;;;;;;;;;19.24;51.83;98066.78;5043260;28;19955;-70
2023/05/28 04:45:43;;;;;;;;;;;;;;;19.29;51.81;98066.63;5040914;28;19933;-70
2023/05/28 04:48:10;;;;;;;;;;;;;;;19.26;51.89;98078.09;5041792;28;19948;-70
2023/05/28 04:50:39;;;;;;;;;;;;;;;19.14;52.14;98063.56;5052629;28;19925;-70
2023/05/28 04:53:05;;;;;;;;;;;;;;;19.18;52.06;98069.94;5041766;28;19929;-70
2023/05/28 04:55:31;;;;;;;;;;;;;;;18.99;52.45;98070.22;5040476;28;19988;-70
2023/05/28 04:57:58;;;;;;;;;;;;;;;19.19;52.23;98061.50;5043187;28;19976;-70
2023/05/28 05:00:26;;;;;;;;;;;;;;;19.14;52.35;98069.78;5044287;28;19936;-70
2023/05/28 05:02:53;;;;;;;;;;;;;;;19.09;52.61;98064.53;5044415;28;19936;-70
2023/05/28 05:05:20;;;;;;;;;;;;;;;19.13;52.63;98068.16;5043683;28;19953;-70
2023/05/28 05:07:48;;;;;;;;;;;;;;;18.92;53.05;98069.84;5040615;28;20347;-70
2023/05/28 05:10:14;;;;;;;;;;;;;;;18.90;53.25;98077.50;5040824;28;19926;-70
2023/05/28 05:12:41;;;;;;;;;;;;;;;19.04;52.92;98071.97;5044573;28;19926;-70
2023/05/28 05:15:07;;;;;;;;;;;;;;;19.21;52.68;98074.75;5065860;28;19921;-70
2023/05/28 05:17:34;;;;;;;;;;;;;;;18.86;53.17;98079.22;5040646;28;19921;-70
2023/05/28 05:20:04;;;;;;;;;;;;;;;18.67;53.92;98081.38;5043567;28;20378;-70
2023/05/28 05:22:31;;;;;;;;;;;;;;;18.43;55.05;98075.47;5060047;28;19925;-70
2023/05/28 05:24:59;;;;;;;;;;;;;;;18.43;55.30;98076.28;5044492;28;19926;-70
2023/05/28 05:27:25;;;;;;;;;;;;;;;18.13;55.95;98071.66;5044391;28;20521;-70
2023/05/28 05:29:52;;;;;;;;;;;;;;;17.82;57.99;98074.28;5048017;28;19936;-70
2023/05/28 05:32:18;;;;;;;;;;;;;;;17.75;59.15;98072.00;5040048;28;19932;-70
2023/05/28 05:34:44;;;;;;;;;;;;;;;18.43;57.04;98070.06;5043848;28;19960;-70
2023/05/28 05:37:11;;;;;;;;;;;;;;;18.91;55.67;98070.97;5050066;28;19921;-70
2023/05/28 05:39:37;;;;;;;;;;;;;;;19.15;54.94;98071.38;5038904;28;19925;-70
2023/05/28 05:42:06;;;;;;;;;;;;;;;19.45;54.11;98068.91;5042305;28;19925;-70
2023/05/28 05:44:32;;;;;;;;;;;;;;;19.70;53.60;98081.69;5043930;28;19925;-70
2023/05/28 05:46:58;;;;;;;;;;;;;;;19.78;53.42;98078.97;5059956;28;19921;-70
2023/05/28 05:49:25;;;;;;;;;;;;;;;19.98;53.14;98074.84;5044013;28;19936;-70
2023/05/28 05:51:51;;;;;;;;;;;;;;;20.06;53.17;98073.25;5040283;28;19940;-70
2023/05/28 05:54:17;;;;;;;;;;;;;;;20.21;53.10;98070.81;5039883;28;19972;-70
2023/05/28 05:56:44;;;;;;;;;;;;;;;20.27;53.07;98069.56;5043639;28;19933;-70
2023/05/28 05:59:11;;;;;;;;;;;;;;;20.19;53.32;98067.66;5049928;28;19925;-70
2023/05/28 06:01:38;;;;;;;;;;;;;;;20.43;53.10;98070.66;5047234;28;19932;-70
2023/05/28 06:04:07;;;;;;;;;;;;;;;20.59;52.87;98076.38;5042872;28;19953;-70
2023/05/28 06:06:36;;;;;;;;;;;;;;;20.76;52.52;98070.09;5043516;28;19932;-70
2023/05/28 06:09:03;;;;;;;;;;;;;;;20.75;52.56;98069.28;5043463;28;19921;-70
2023/05/28 06:11:30;;;;;;;;;;;;;;;20.82;52.56;98068.78;5039516;28;19925;-70
2023/05/28 06:13:56;;;;;;;;;;;;;;;20.74;52.54;98073.13;5040364;28;19933;-70
2023/05/28 06:16:25;;;;;;;;;;;;;;;20.80;52.81;98071.81;5039340;28;19929;-70
2023/05/28 06:18:51;;;;;;;;;;;;;;;21.06;52.41;98076.34;5037012;28;19952;-70
2023/05/28 06:21:17;;;;;;;;;;;;;;;21.21;52.18;98075.81;5043120;28;19932;-70
2023/05/28 06:23:44;;;;;;;;;;;;;;;21.29;52.15;98073.06;5045908;28;19929;-70
2023/05/28 06:26:10;;;;;;;;;;;;;;;21.32;52.29;98075.09;5041237;28;19921;-70
2023/05/28 06:28:37;;;;;;;;;;;;;;;21.22;52.34;98069.28;5043791;28;19929;-70
2023/05/28 06:31:04;;;;;;;;;;;;;;;20.89;53.07;98069.88;5048466;28;19933;-70
2023/05/28 06:33:32;;;;;;;;;;;;;;;20.94;53.34;98077.84;5043052;28;19944;-70
2023/05/28 06:35:58;;;;;;;;;;;;;;;20.84;53.73;98072.78;5039572;28;19936;-70
2023/05/28 06:38:25;;;;;;;;;;;;;;;20.76;54.04;98072.81;5037584;28;19933;-70
2023/05/28 06:40:51;;;;;;;;;;;;;;;21.15;53.57;98074.41;5041105;28;19926;-70
2023/05/28 06:43:17;;;;;;;;;;;;;;;21.56;53.17;98065.53;5042376;28;19929;-70
2023/05/28 06:45:44;;;;;;;;;;;;;;;21.70;52.79;98071.50;5044751;28;19925;-70
2023/05/28 06:48:11;;;;;;;;;;;;;;;21.92;52.47;98073.94;5040679;28;19925;-70
2023/05/28 06:50:38;;;;;;;;;;;;;;;21.92;52.09;98068.50;5042349;28;19926;-70
2023/05/28 06:53:04;;;;;;;;;;;;;;;21.69;52.91;98067.22;5042358;28;19925;-70
2023/05/28 06:55:31;;;;;;;;;;;;;;;21.94;52.75;98058.88;5041439;28;19929;-70
2023/05/28 06:57:57;;;;;;;;;;;;;;;21.92;52.69;98052.97;5039547;28;19925;-70
2023/05/28 07:00:24;;;;;;;;;;;;;;;21.79;52.97;98064.88;5052743;28;20655;-70
2023/05/28 07:02:50;;;;;;;;;;;;;;;22.18;52.89;98049.22;5042614;28;19926;-70
2023/05/28 07:05:17;;;;;;;;;;;;;;;22.19;52.62;98057.03;5041054;28;19937;-70
2023/05/28 07:07:45;;;;;;;;;;;;;;;22.48;52.32;98054.19;5037397;28;19925;-70
2023/05/28 07:10:11;;;;;;;;;;;;;;;22.64;52.05;98057.06;5040224;28;19926;-70
2023/05/28 07:12:38;;;;;;;;;;;;;;;22.78;52.11;98062.19;5041843;28;19925;-70
2023/05/28 07:15:06;;;;;;;;;;;;;;;22.84;52.32;98075.25;5057250;28;20501;-70
2023/05/28 07:17:32;;;;;;;;;;;;;;;22.94;52.14;98071.31;5041900;28;20306;-70
2023/05/28 07:19:59;;;;;;;;;;;;;;;23.04;52.07;98076.31;5039460;28;19921;-70
2023/05/28 07:22:26;;;;;;;;;;;;;;;23.11;52.06;98069.16;5037066;28;19925;-70
2023/05/28 07:24:53;;;;;;;;;;;;;;;23.15;51.96;98072.00;5049443;28;19925;-70
2023/05/28 07:27:20;;;;;;;;;;;;;;;23.07;52.26;98070.19;5041185;28;19921;-70
2023/05/28 07:29:46;;;;;;;;;;;;;;;23.16;52.08;98067.34;5044726;28;19933;-70
2023/05/28 07:32:12;;;;;;;;;;;;;;;23.17;52.06;98074.38;5039413;28;19936;-70
2023/05/28 07:34:40;;;;;;;;;;;;;;;23.26;52.09;98066.88;5041908;28;19945;-70
2023/05/28 07:37:06;;;;;;;;;;;;;;;23.13;51.43;98066.88;5042004;28;19929;-70
2023/05/28 07:39:33;;;;;;;;;;;;;;;22.69;52.06;98070.47;5040565;28;19944;-70
2023/05/28 07:42:01;;;;;;;;;;;;;;;22.86;52.28;98069.50;5039562;28;19952;-70
2023/05/28 07:44:27;;;;;;;;;;;;;;;22.70;51.54;98066.63;5036654;28;19925;-70
2023/05/28 07:46:54;;;;;;;;;;;;;;;22.96;52.06;98077.22;5048883;28;19933;-70
2023/05/28 07:49:21;;;;;;;;;;;;;;;23.28;51.63;98070.84;5036373;28;19926;-70
2023/05/28 07:51:47;;;;;;;;;;;;;;;23.45;50.96;98070.66;5036490;28;19921;-70
2023/05/28 07:54:13;;;;;;;;;;;;;;;23.65;50.28;98069.69;5039065;28;19922;-70
2023/05/28 07:56:40;;;;;;;;;;;;;;;23.80;49.59;98075.59;5041556;28;19932;-71
2023/05/28 07:59:08;;;;;;;;;;;;;;;23.98;48.81;98074.16;5046048;28;19925;-70
2023/05/28 08:01:34;;;;;;;;;;;;;;;23.99;48.22;98068.34;5046378;28;19925;-70
2023/05/28 08:04:01;;;;;;;;;;;;;;;23.48;46.51;98067.25;5039598;28;19932;-70
2023/05/28 08:06:27;;;;;;;;;;;;;;;23.54;48.86;98060.41;5038747;28;19925;-70
2023/05/28 08:08:54;;;;;;;;;;;;;;;23.67;48.35;98064.69;5053181;28;19925;-70
2023/05/28 08:11:21;;;;;;;;;;;;;;;24.00;48.06;98064.50;5044973;28;19932;-70
2023/05/28 08:13:47;;;;;;;;;;;;;;;24.10;47.48;98063.22;5040684;28;19925;-70
2023/05/28 08:16:15;;;;;;;;;;;;;;;24.11;46.68;98051.16;5043211;28;19926;-70
2023/05/28 08:18:42;;;;;;;;;;;;;;;23.53;45.27;98064.28;5045315;28;19925;-71
2023/05/28 08:21:08;;;;;;;;;;;;;;;23.37;47.88;98059.81;5045644;28;19925;-71
2023/05/28 08:23:34;;;;;;;;;;;;;;;23.80;47.69;98061.94;5039233;28;20327;-71
2023/05/28 08:26:01;;;;;;;;;;;;;;;23.24;45.83;98063.72;5043155;28;19932;-71
2023/05/28 08:28:27;;;;;;;;;;;;;;;22.86;47.28;98055.88;5040403;28;19929;-71
2023/05/28 08:30:53;;;;;;;;;;;;;;;22.18;47.17;98055.47;5052781;28;19921;-70
2023/05/28 08:33:21;;;;;;;;;;;;;;;22.17;48.53;98051.16;5044921;28;19921;-70
2023/05/28 08:35:47;;;;;;;;;;;;;;;22.27;47.90;98048.03;5040157;28;19932;-70
2023/05/28 08:38:14;;;;;;;;;;;;;;;21.75;48.10;98042.22;5042909;28;19928;-71
2023/05/28 08:40:42;;;;;;;;;;;;;;;21.56;48.32;98039.16;5045150;28;19925;-70
2023/05/28 08:43:08;;;;;;;;;;;;;;;21.62;48.82;98045.19;5045013;28;19937;-70
2023/05/28 08:45:37;;;;;;;;;;;;;;;22.26;49.40;98046.41;5042097;28;19925;-71
2023/05/28 08:48:05;;;;;;;;;;;;;;;22.66;48.48;98043.13;5043110;28;19926;-70
2023/05/28 08:50:33;;;;;;;;;;;;;;;22.14;47.65;98037.41;5040755;28;19932;-71
2023/05/28 08:53:00;;;;;;;;;;;;;;;23.11;48.12;98039.22;5043479;28;19925;-70
2023/05/28 08:55:26;;;;;;;;;;;;;;;23.48;47.37;98041.91;5052755;28;19938;-71
2023/05/28 08:57:53;;;;;;;;;;;;;;;23.84;47.10;98032.81;5040337;28;19952;-70
2023/05/28 09:00:19;;;;;;;;;;;;;;;23.89;46.52;98030.66;5056370;28;19936;-70
2023/05/28 09:02:46;;;;;;;;;;;;;;;24.24;46.22;98027.34;5042479;28;19936;-71
2023/05/28 09:05:13;;;;;;;;;;;;;;;23.80;44.91;98037.41;5044505;28;19926;-70
2023/05/28 09:07:41;;;;;;;;;;;;;;;23.32;45.84;98036.34;5041919;28;19926;-70
2023/05/28 09:10:07;;;;;;;;;;;;;;;24.05;46.44;98019.78;5042477;28;19929;-70
2023/05/28 09:12:34;;;;;;;;;;;;;;;24.43;45.74;98017.34;5039996;28;19937;-70
2023/05/28 09:15:00;;;;;;;;;;;;;;;24.57;45.88;98014.97;5041330;28;19925;-70
2023/05/28 09:17:34;;;;;;;;;;;;;;;24.43;45.65;98014.63;5051006;28;19936;-70
2023/05/28 09:20:00;;;;;;;;;;;;;;;24.68;45.53;98016.03;5039635;28;19925;-70
2023/05/28 09:22:27;;;;;;;;;;;;;;;24.19;45.42;98012.03;5040327;28;20199;-70
2023/05/28 09:24:55;;;;;;;;;;;;;;;23.82;45.47;98007.84;5043440;28;20284;-71
2023/05/28 09:27:23;;;;;;;;;;;;;;;24.46;45.77;98005.72;5043938;28;19925;-71
2023/05/28 09:29:50;;;;;;;;;;;;;;;24.02;45.75;98001.38;5043847;28;19932;-70
2023/05/28 09:32:18;;;;;;;;;;;;;;;23.89;45.75;98003.38;5043006;28;20008;-71
2023/05/28 09:34:45;;;;;;;;;;;;;;;24.04;45.91;98002.66;5040178;28;19929;-71
2023/05/28 09:37:11;;;;;;;;;;;;;;;24.61;45.52;98001.41;5048825;28;19932;-70
2023/05/28 09:39:37;;;;;;;;;;;;;;;24.85;45.68;97997.75;5043612;28;19929;-71
2023/05/28 09:42:09;;;;;;;;;;;;;;;25.12;45.03;98002.28;5041088;28;19939;-71
2023/05/28 09:44:36;;;;;;;;;;;;;;;25.28;45.43;97994.84;5040151;28;19933;-71
2023/05/28 09:47:02;;;;;;;;;;;;;;;25.24;45.20;97997.50;5042025;28;19933;-71
2023/05/28 09:49:29;;;;;;;;;;;;;;;25.19;45.28;97988.78;5043616;28;19922;-71
2023/05/28 09:51:58;;;;;;;;;;;;;;;25.20;45.45;97985.69;5043539;28;19926;-71
2023/05/28 09:54:26;;;;;;;;;;;;;;;24.81;40.53;97989.47;5044780;28;19948;-71
2023/05/28 09:56:53;;;;;;;;;;;;;;;24.23;40.73;97985.63;5042545;28;19933;-71
2023/05/28 09:59:26;;;;;;;;;;;;;;;24.35;43.90;97990.22;5049865;28;19937;-70
2023/05/28 10:01:56;;;;;;;;;;;;;;;24.89;43.21;97974.03;5040225;28;19925;-70
2023/05/28 10:04:28;;;;;;;;;;;;;;;25.10;43.47;97974.50;5043161;28;19925;-71
2023/05/28 10:06:54;;;;;;;;;;;;;;;24.98;42.83;97972.69;5059866;28;19926;-71
2023/05/28 10:09:21;;;;;;;;;;;;;;;25.15;43.49;97969.59;5037504;28;19932;-71
2023/05/28 10:11:51;;;;;;;;;;;;;;;24.66;41.64;97966.44;5066812;28;19937;-71
2023/05/28 10:14:18;;;;;;;;;;;;;;;24.50;42.18;97970.31;5037489;28;19925;-71
2023/05/28 10:16:46;;;;;;;;;;;;;;;24.36;41.12;97959.03;5036775;28;19932;-71
2023/05/28 10:19:13;;;;;;;;;;;;;;;24.26;40.61;97970.50;5044004;28;19925;-71
2023/05/28 10:21:40;;;;;;;;;;;;;;;24.23;41.67;97972.00;5043231;28;19931;-70
2023/05/28 10:24:06;;;;;;;;;;;;;;;24.53;39.38;97962.22;5043103;28;19932;-70
2023/05/28 10:26:33;;;;;;;;;;;;;;;24.53;38.41;97964.97;5042813;28;19929;-70
2023/05/28 10:29:00;;;;;;;;;;;;;;;24.27;36.20;97970.13;5040248;28;19932;-71
2023/05/28 10:31:26;;;;;;;;;;;;;;;24.84;39.82;97968.84;5044764;28;19933;-71
2023/05/28 10:33:54;;;;;;;;;;;;;;;25.31;39.47;97963.28;5042760;28;20332;-71
2023/05/28 10:36:20;;;;;;;;;;;;;;;25.55;39.41;97958.34;5041944;28;19925;-71
2023/05/28 10:38:57;;;;;;;;;;;;;;;25.09;38.38;97957.34;5038240;28;19990;-71
2023/05/28 10:41:24;;;;;;;;;;;;;;;24.62;36.52;97962.03;5039231;28;19925;-71
2023/05/28 10:43:50;;;;;;;;;;;;;;;24.36;37.92;97959.81;5038909;28;19925;-71
2023/05/28 10:46:18;;;;;;;;;;;;;;;24.26;38.60;97954.91;5042437;28;19927;-71
2023/05/28 10:49:03;;;;;;;;;;;;;;;24.71;39.25;97958.00;5042385;28;19936;-71
2023/05/28 10:51:44;;;;;;;;;;;;;;;25.27;38.60;97946.00;5042365;28;19956;-71
2023/05/28 10:54:21;;;;;;;;;;;;;;;25.46;38.67;97954.22;5041627;28;19920;-71
2023/05/28 10:57:07;;;;;;;;;;;;;;;25.04;37.37;97941.19;5042639;28;20065;-70
2023/05/28 10:59:40;;;;;;;;;;;;;;;24.81;36.14;97950.41;5050520;28;19929;-70
2023/05/28 11:02:06;;;;;;;;;;;;;;;24.45;33.93;97944.06;5045737;28;19925;-71
2023/05/28 11:04:33;;;;;;;;;;;;;;;24.52;36.43;97946.97;5042112;28;19940;-71
2023/05/28 11:07:01;;;;;;;;;;;;;;;24.54;35.26;97941.94;5038809;28;19932;-71
2023/05/28 11:09:27;;;;;;;;;;;;;;;24.69;35.71;97935.72;5038364;28;19925;-71
2023/05/28 11:11:54;;;;;;;;;;;;;;;24.78;36.51;97934.72;5041503;28;19993;-71
2023/05/28 11:14:20;;;;;;;;;;;;;;;25.13;36.53;97927.34;5041832;28;19956;-71
2023/05/28 11:16:46;;;;;;;;;;;;;;;24.51;35.76;97937.19;5042005;28;19925;-71
2023/05/28 11:19:13;;;;;;;;;;;;;;;24.63;36.66;97934.38;5041235;28;19920;-71
2023/05/28 11:21:50;;;;;;;;;;;;;;;24.42;36.97;97922.13;5043278;28;19929;-71
2023/05/28 11:24:18;;;;;;;;;;;;;;;24.46;37.39;97921.09;5042304;28;19930;-71
2023/05/28 11:26:44;;;;;;;;;;;;;;;24.63;37.83;97914.47;5042003;28;19936;-71
2023/05/28 11:29:10;;;;;;;;;;;;;;;24.94;37.91;97921.84;5040505;28;19925;-70
2023/05/28 11:31:40;;;;;;;;;;;;;;;24.69;36.81;97916.59;5036649;28;20324;-71
2023/05/28 11:34:07;;;;;;;;;;;;;;;24.56;37.30;97923.28;5056464;28;19926;-71
2023/05/28 11:36:38;;;;;;;;;;;;;;;24.73;38.05;97917.44;5045941;28;19929;-71
2023/05/28 11:39:04;;;;;;;;;;;;;;;24.60;36.55;97915.97;5045851;28;19925;-71
2023/05/28 11:41:32;;;;;;;;;;;;;;;24.61;35.42;97914.81;5041050;28;19936;-71
2023/05/28 11:43:58;;;;;;;;;;;;;;;24.76;36.64;97921.41;5037860;28;19944;-71
2023/05/28 11:46:25;;;;;;;;;;;;;;;24.64;36.61;97908.66;5037845;28;19925;-71
2023/05/28 11:48:51;;;;;;;;;;;;;;;24.67;36.96;97907.16;5037913;28;19932;-71
2023/05/28 11:51:19;;;;;;;;;;;;;;;24.58;37.04;97909.28;5041501;28;19925;-71
2023/05/28 11:53:46;;;;;;;;;;;;;;;24.59;36.38;97908.94;5041413;28;19929;-71
2023/05/28 11:56:13;;;;;;;;;;;;;;;24.53;34.96;97906.81;5039572;28;19925;-71
2023/05/28 11:58:45;;;;;;;;;;;;;;;24.67;34.02;97905.22;5036711;28;19926;-71
2023/05/28 12:01:13;;;;;;;;;;;;;;;24.95;36.59;97901.56;5037754;28;19948;-71
2023/05/28 12:03:40;;;;;;;;;;;;;;;25.02;36.25;97902.53;5040589;28;19932;-71
2023/05/28 12:06:06;;;;;;;;;;;;;;;24.93;34.76;97903.88;5046192;28;19925;-71
2023/05/28 12:08:32;;;;;;;;;;;;;;;24.68;34.93;97904.06;5035990;28;19933;-70
2023/05/28 12:11:02;;;;;;;;;;;;;;;24.59;34.41;97899.94;5041896;28;19926;-71
2023/05/28 12:13:33;;;;;;;;;;;;;;;24.57;33.58;97900.28;5040756;28;19925;-71
2023/05/28 12:16:07;;;;;;;;;;;;;;;24.66;34.93;97894.66;5040624;28;19952;-71
2023/05/28 12:18:33;;;;;;;;;;;;;;;24.58;34.50;97892.88;5040491;28;19925;-70
2023/05/28 12:21:00;;;;;;;;;;;;;;;24.56;33.64;97900.66;5038348;28;19925;-70
2023/05/28 12:23:26;;;;;;;;;;;;;;;24.56;32.12;97897.94;5036023;28;20037;-71
2023/05/28 12:25:53;;;;;;;;;;;;;;;24.54;32.11;97898.25;5040261;28;19949;-70
2023/05/28 12:28:20;;;;;;;;;;;;;;;24.84;34.64;97893.16;5048108;28;20005;-70
2023/05/28 12:30:50;;;;;;;;;;;;;;;24.78;32.53;97891.81;5051230;28;19944;-70
2023/05/28 12:33:18;;;;;;;;;;;;;;;24.85;31.42;97896.69;5038609;28;19922;-71
2023/05/28 12:35:44;;;;;;;;;;;;;;;25.02;32.96;97888.06;5040804;28;19933;-71
2023/05/28 12:38:10;;;;;;;;;;;;;;;25.09;33.63;97889.03;5040607;28;19925;-70
2023/05/28 12:40:37;;;;;;;;;;;;;;;25.07;33.54;97888.56;5040476;28;19932;-71
2023/05/28 12:43:03;;;;;;;;;;;;;;;25.26;32.44;97882.31;5037608;28;19925;-71
2023/05/28 12:45:29;;;;;;;;;;;;;;;25.44;32.92;97875.28;5036881;28;19930;-70
2023/05/28 12:47:56;;;;;;;;;;;;;;;25.41;31.00;97875.22;5039802;28;19925;-70